Time;durP1;ratioP1;P1;durP2;ratioP2;P2;SDS_P1;SDS_P2;PMS_P1;PMS_P2;Temp;Humidity;BMP_temperature;BMP_pressure;BME280_temperature;BME280_humidity;BME280_pressure;Samples;Min_cycle;Max_cycle;Signal;HPM_P1;HPM_P2
2022/07/09 00:01:27;;;;;;;;;14.50;13.00;;;;;24.96;49.67;102610.38;5043672;28;46184;-66
2022/07/09 00:03:54;;;;;;;;;16.50;14.75;;;;;25.10;49.40;102616.94;5044837;28;45486;-67
2022/07/09 00:06:20;;;;;;;;;14.67;14.67;;;;;25.07;49.07;102620.09;5042822;28;45330;-67
2022/07/09 00:08:45;;;;;;;;;15.00;13.33;;;;;25.20;47.71;102621.09;5051341;28;45555;-67
2022/07/09 00:11:10;;;;;;;;;14.33;12.67;;;;;25.18;48.76;102616.81;5041760;28;46477;-67
2022/07/09 00:13:36;;;;;;;;;13.67;13.33;;;;;25.08;49.99;102621.84;5050331;28;45414;-67
2022/07/09 00:16:01;;;;;;;;;12.00;10.33;;;;;25.01;49.99;102621.78;5042414;28;45206;-67
2022/07/09 00:18:26;;;;;;;;;11.33;11.33;;;;;24.80;50.48;102630.94;5051304;28;45497;-67
2022/07/09 00:20:56;;;;;;;;;10.33;9.00;;;;;24.60;51.41;102623.41;5043241;28;45280;-67
2022/07/09 00:23:22;;;;;;;;;6.67;6.67;;;;;24.64;51.29;102631.16;5053138;28;45539;-67
2022/07/09 00:25:47;;;;;;;;;9.67;9.33;;;;;24.70;50.93;102618.38;5040480;28;45381;-67
2022/07/09 00:28:13;;;;;;;;;11.33;10.00;;;;;24.69;50.76;102616.69;5051292;28;45440;-67
2022/07/09 00:30:38;;;;;;;;;6.50;5.50;;;;;24.70;50.95;102613.69;5041852;28;45588;-66
2022/07/09 00:33:03;;;;;;;;;10.33;10.33;;;;;24.72;51.33;102614.38;5049539;28;46314;-66
2022/07/09 00:35:29;;;;;;;;;11.00;10.00;;;;;24.68;51.06;102610.28;5042079;28;45408;-66
2022/07/09 00:37:54;;;;;;;;;5.00;5.00;;;;;24.60;51.34;102610.38;5033141;28;45517;-66
2022/07/09 00:40:19;;;;;;;;;6.00;6.00;;;;;24.71;51.00;102611.78;5041884;28;46111;-66
2022/07/09 00:42:45;;;;;;;;;8.33;8.33;;;;;24.61;51.44;102603.78;5047533;28;45505;-67
2022/07/09 00:45:10;;;;;;;;;10.00;7.00;;;;;24.56;51.69;102600.69;5041965;28;45391;-66
2022/07/09 00:47:35;;;;;;;;;8.00;7.00;;;;;24.51;51.74;102583.75;5051188;28;45510;-66
2022/07/09 00:50:01;;;;;;;;;6.67;6.67;;;;;24.56;52.30;102603.47;5060140;28;46419;-66
2022/07/09 00:52:27;;;;;;;;;7.33;6.33;;;;;24.66;51.61;102589.28;5045120;28;45386;-66
2022/07/09 00:54:54;;;;;;;;;5.33;5.33;;;;;24.77;51.08;102591.53;5046479;28;45498;-66
2022/07/09 00:57:22;;;;;;;;;6.33;6.33;;;;;24.75;51.80;102607.56;5058032;28;45351;-67
2022/07/09 00:59:47;;;;;;;;;5.00;5.00;;;;;24.91;50.97;102599.00;5045273;28;47341;-66
2022/07/09 01:02:13;;;;;;;;;8.00;8.00;;;;;24.64;51.76;102596.94;5048647;28;45454;-67
2022/07/09 01:04:39;;;;;;;;;7.33;7.33;;;;;24.61;52.14;102597.34;5053187;28;45328;-66
2022/07/09 01:07:05;;;;;;;;;7.00;6.67;;;;;24.67;51.43;102600.22;5058906;28;45366;-66
2022/07/09 01:09:30;;;;;;;;;9.00;7.67;;;;;24.68;51.57;102598.28;5048384;28;46158;-66
2022/07/09 01:11:57;;;;;;;;;7.67;7.33;;;;;24.68;51.15;102592.72;5050887;28;45906;-66
2022/07/09 01:14:22;;;;;;;;;7.00;7.00;;;;;24.58;52.03;102598.59;5047338;28;45346;-65
2022/07/09 01:16:57;;;;;;;;;7.33;5.67;;;;;24.64;51.69;102586.69;5049958;28;45215;-67
2022/07/09 01:19:22;;;;;;;;;8.00;8.00;;;;;24.51;51.70;102575.44;5030085;28;46904;-67
2022/07/09 01:21:47;;;;;;;;;9.00;8.00;;;;;24.57;51.76;102588.53;5052274;28;45469;-67
2022/07/09 01:24:12;;;;;;;;;8.67;8.67;;;;;24.58;52.56;102601.38;5062366;28;45343;-67
2022/07/09 01:26:38;;;;;;;;;7.67;6.67;;;;;24.53;51.82;102590.00;5046497;28;45177;-67
2022/07/09 01:29:03;;;;;;;;;6.67;6.33;;;;;24.52;51.87;102582.72;5046031;28;45862;-67
2022/07/09 01:31:29;;;;;;;;;7.00;7.00;;;;;24.44;51.60;102585.59;5056289;28;45354;-66
2022/07/09 01:33:54;;;;;;;;;8.00;8.00;;;;;24.41;52.15;102578.50;5049944;28;45382;-65
2022/07/09 01:36:19;;;;;;;;;9.00;8.00;;;;;24.33;53.11;102574.97;5045601;28;45633;-67
2022/07/09 01:38:44;;;;;;;;;7.67;7.67;;;;;24.30;53.25;102578.16;5050045;28;46289;-67
2022/07/09 01:41:10;;;;;;;;;7.33;7.33;;;;;24.24;53.63;102567.84;5058495;28;45359;-66
2022/07/09 01:43:36;;;;;;;;;10.00;9.00;;;;;24.30;53.02;102567.06;5034318;28;45395;-66
2022/07/09 01:46:01;;;;;;;;;7.33;7.00;;;;;24.32;52.73;102576.06;5045354;28;45445;-66
2022/07/09 01:48:29;;;;;;;;;7.00;7.00;;;;;24.21;53.07;102569.06;5048421;28;45385;-65
2022/07/09 01:50:55;;;;;;;;;10.00;10.00;;;;;24.21;53.30;102566.31;5044719;28;45355;-65
2022/07/09 01:53:20;;;;;;;;;11.00;11.00;;;;;24.14;53.77;102567.25;5052036;28;45493;-66
2022/07/09 01:55:46;;;;;;;;;7.00;7.00;;;;;24.08;54.18;102556.91;5045189;28;45406;-67
2022/07/09 01:58:11;;;;;;;;;7.67;7.67;;;;;24.09;53.69;102555.84;5052002;28;45378;-67
2022/07/09 02:00:36;;;;;;;;;7.67;7.67;;;;;24.13;53.84;102559.97;5051976;28;46386;-67
2022/07/09 02:03:02;;;;;;;;;7.33;7.00;;;;;24.13;53.08;102555.25;5058312;28;45220;-67
2022/07/09 02:05:27;;;;;;;;;5.67;5.67;;;;;24.17;53.38;102555.75;5042972;28;45520;-67
2022/07/09 02:07:53;;;;;;;;;8.00;7.00;;;;;24.17;53.62;102551.06;5049559;28;45504;-67
2022/07/09 02:10:18;;;;;;;;;8.67;7.67;;;;;24.13;53.73;102548.84;5056393;28;45168;-67
2022/07/09 02:12:43;;;;;;;;;7.67;7.00;;;;;23.97;54.57;102544.38;5054962;28;45395;-67
2022/07/09 02:15:10;;;;;;;;;8.00;8.00;;;;;23.91;54.34;102547.91;5044585;28;45338;-67
2022/07/09 02:17:36;;;;;;;;;9.00;9.00;;;;;23.89;54.98;102552.81;5052400;28;45624;-67
2022/07/09 02:20:01;;;;;;;;;6.33;6.33;;;;;23.90;55.06;102549.84;5043840;28;45343;-67
2022/07/09 02:22:27;;;;;;;;;9.67;8.00;;;;;23.81;55.07;102539.91;5047592;28;45540;-67
2022/07/09 02:24:52;;;;;;;;;10.00;7.67;;;;;23.83;54.38;102554.44;5048204;28;45319;-67
2022/07/09 02:27:17;;;;;;;;;10.33;8.33;;;;;23.88;53.86;102556.66;5046839;28;45458;-67
2022/07/09 02:29:43;;;;;;;;;6.67;6.67;;;;;23.82;54.99;102547.16;5043933;28;45296;-67
2022/07/09 02:32:10;;;;;;;;;8.67;8.33;;;;;23.78;54.71;102540.28;5047200;28;45399;-66
2022/07/09 02:34:36;;;;;;;;;8.67;6.67;;;;;23.75;56.11;102548.97;5063397;28;46051;-67
2022/07/09 02:37:02;;;;;;;;;11.00;8.00;;;;;23.71;56.18;102539.31;5052876;28;45901;-66
2022/07/09 02:39:27;;;;;;;;;7.33;7.33;;;;;23.67;55.22;102535.19;5041735;28;45416;-66
2022/07/09 02:41:52;;;;;;;;;9.00;9.00;;;;;23.68;56.38;102536.91;5049049;28;45435;-67
2022/07/09 02:44:17;;;;;;;;;7.00;7.00;;;;;23.61;56.37;102541.50;5045987;28;45256;-66
2022/07/09 02:46:43;;;;;;;;;8.00;8.00;;;;;23.59;56.19;102540.88;5047380;28;45282;-66
2022/07/09 02:49:10;;;;;;;;;8.33;7.00;;;;;23.60;55.62;102535.09;5044458;28;45332;-66
2022/07/09 02:51:35;;;;;;;;;8.67;8.67;;;;;23.59;55.67;102535.31;5034229;28;45527;-66
2022/07/09 02:54:01;;;;;;;;;10.67;10.67;;;;;23.54;56.40;102538.63;5047403;28;45296;-66
2022/07/09 02:56:26;;;;;;;;;7.00;7.00;;;;;23.51;56.86;102544.59;5044905;28;46179;-66
2022/07/09 02:58:51;;;;;;;;;9.33;9.33;;;;;23.47;55.89;102543.19;5042980;28;45448;-66
2022/07/09 03:01:16;;;;;;;;;13.00;8.67;;;;;23.47;56.16;102543.19;5044489;28;45402;-66
2022/07/09 03:03:42;;;;;;;;;8.00;8.00;;;;;23.40;57.03;102541.38;5050263;28;45438;-67
2022/07/09 03:06:08;;;;;;;;;9.33;9.33;;;;;23.36;57.04;102542.81;5028101;28;47329;-66
2022/07/09 03:08:33;;;;;;;;;9.00;7.67;;;;;23.28;57.01;102540.97;5042777;28;45319;-67
2022/07/09 03:10:59;;;;;;;;;10.00;10.00;;;;;23.25;57.91;102539.44;5029857;28;45849;-66
2022/07/09 03:13:24;;;;;;;;;8.33;8.33;;;;;23.26;57.92;102549.47;5056068;28;45453;-67
2022/07/09 03:15:50;;;;;;;;;7.33;7.33;;;;;23.34;57.05;102545.75;5045569;28;46974;-67
2022/07/09 03:18:15;;;;;;;;;6.00;6.00;;;;;23.43;55.73;102550.19;5055142;28;45440;-66
2022/07/09 03:20:41;;;;;;;;;9.67;8.00;;;;;23.33;56.81;102551.50;5043222;28;45390;-67
2022/07/09 03:23:06;;;;;;;;;9.00;9.00;;;;;23.30;56.95;102542.50;5053224;28;45570;-66
2022/07/09 03:25:32;;;;;;;;;10.33;9.00;;;;;23.34;56.66;102542.13;5044391;28;46206;-66
2022/07/09 03:27:58;;;;;;;;;9.33;9.33;;;;;23.27;56.29;102544.81;5050281;28;45440;-67
2022/07/09 03:30:23;;;;;;;;;7.67;7.67;;;;;23.29;56.31;102546.34;5042707;28;45317;-67
2022/07/09 03:32:50;;;;;;;;;8.00;8.00;;;;;23.22;57.15;102545.38;5048161;28;45323;-66
2022/07/09 03:35:16;;;;;;;;;9.00;8.00;;;;;23.25;56.92;102556.06;5041254;28;47351;-66
2022/07/09 03:37:41;;;;;;;;;10.67;8.67;;;;;23.36;57.20;102556.69;5051610;28;45559;-66
2022/07/09 03:40:07;;;;;;;;;8.00;8.00;;;;;23.26;56.63;102543.06;5042704;28;45549;-66
2022/07/09 03:42:32;;;;;;;;;9.00;9.00;;;;;23.10;57.01;102546.00;5045551;28;45565;-67
2022/07/09 03:44:58;;;;;;;;;13.00;12.00;;;;;23.07;56.72;102547.25;5042847;28;45328;-66
2022/07/09 03:47:23;;;;;;;;;11.00;11.00;;;;;23.05;57.47;102543.78;5040375;28;45563;-66
2022/07/09 03:49:49;;;;;;;;;17.00;12.00;;;;;23.00;58.27;102554.59;5043572;28;45382;-66
2022/07/09 03:52:14;;;;;;;;;10.00;8.33;;;;;22.92;58.98;102557.44;5043864;28;45584;-66
2022/07/09 03:54:40;;;;;;;;;12.33;12.33;;;;;22.96;58.10;102561.53;5042624;28;45360;-66
2022/07/09 03:57:05;;;;;;;;;10.00;10.00;;;;;22.94;58.69;102571.09;5046001;28;45417;-66
2022/07/09 03:59:31;;;;;;;;;11.67;10.67;;;;;22.80;59.78;102573.63;5042505;28;45366;-67
2022/07/09 04:01:56;;;;;;;;;8.33;8.33;;;;;22.70;59.54;102567.44;5045723;28;45406;-67
2022/07/09 04:04:21;;;;;;;;;10.33;9.33;;;;;22.72;59.70;102581.13;5042562;28;45332;-66
2022/07/09 04:06:47;;;;;;;;;9.00;9.00;;;;;22.70;59.07;102566.56;5046411;28;45287;-67
2022/07/09 04:09:12;;;;;;;;;9.33;9.33;;;;;22.78;59.84;102577.63;5057670;28;45254;-66
2022/07/09 04:11:37;;;;;;;;;9.33;9.33;;;;;22.77;59.82;102579.53;5046004;28;45311;-66
2022/07/09 04:14:03;;;;;;;;;9.00;9.00;;;;;22.80;59.46;102579.16;5044313;28;49181;-67
2022/07/09 04:16:29;;;;;;;;;12.33;10.33;;;;;22.80;59.80;102576.38;5040775;28;45214;-66
2022/07/09 04:18:54;;;;;;;;;6.00;6.00;;;;;22.80;59.05;102573.63;5051213;28;45422;-67
2022/07/09 04:21:23;;;;;;;;;9.33;9.00;;;;;22.84;59.91;102571.34;5042692;28;45380;-67
2022/07/09 04:23:49;;;;;;;;;14.00;10.00;;;;;22.77;60.58;102575.91;5050316;28;45952;-66
2022/07/09 04:26:15;;;;;;;;;8.00;8.00;;;;;22.73;60.42;102571.72;5043195;28;45338;-66
2022/07/09 04:28:40;;;;;;;;;11.67;10.00;;;;;22.63;61.51;102571.13;5048753;28;45497;-67
2022/07/09 04:31:05;;;;;;;;;11.00;9.33;;;;;22.60;61.04;102577.88;5042639;28;45549;-66
2022/07/09 04:33:31;;;;;;;;;12.00;12.00;;;;;22.72;61.14;102578.34;5045582;28;45243;-66
2022/07/09 04:35:56;;;;;;;;;15.00;12.67;;;;;22.71;61.14;102573.84;5042158;28;45228;-66
2022/07/09 04:38:21;;;;;;;;;11.00;9.00;;;;;22.76;61.04;102574.19;5043098;28;46182;-67
2022/07/09 04:40:47;;;;;;;;;11.75;9.00;;;;;22.60;61.16;102564.03;5042384;28;45538;-66
2022/07/09 04:43:12;;;;;;;;;7.00;6.00;;;;;22.71;60.63;102568.31;5044120;28;45532;-66
2022/07/09 04:45:38;;;;;;;;;12.25;12.25;;;;;22.74;60.67;102562.41;5034053;28;45510;-66
2022/07/09 04:48:03;;;;;;;;;21.25;21.00;;;;;22.73;61.06;102571.72;5048400;28;46724;-66
2022/07/09 04:50:29;;;;;;;;;15.00;13.00;;;;;22.77;61.22;102575.91;5040250;28;45483;-67
2022/07/09 04:52:54;;;;;;;;;10.67;10.67;;;;;22.73;61.44;102564.31;5051878;28;46607;-66
2022/07/09 04:55:21;;;;;;;;;12.33;10.00;;;;;22.86;61.10;102570.13;5041940;28;45232;-68
2022/07/09 04:57:46;;;;;;;;;15.00;15.00;;;;;22.93;61.31;102578.56;5051276;28;45444;-66
2022/07/09 05:00:12;;;;;;;;;9.00;9.00;;;;;22.92;60.97;102571.28;5043633;28;45451;-66
2022/07/09 05:02:38;;;;;;;;;14.00;12.00;;;;;22.94;61.51;102580.25;5049559;28;46428;-66
2022/07/09 05:05:06;;;;;;;;;12.00;12.00;;;;;22.98;60.62;102570.53;5046084;28;45269;-66
2022/07/09 05:07:32;;;;;;;;;10.00;10.00;;;;;22.99;61.37;102577.81;5041779;28;45335;-67
2022/07/09 05:09:57;;;;;;;;;11.00;11.00;;;;;22.97;61.84;102576.25;5034958;28;45546;-67
2022/07/09 05:12:23;;;;;;;;;8.67;7.67;;;;;22.96;61.38;102575.41;5044622;28;45610;-67
2022/07/09 05:14:48;;;;;;;;;12.33;12.33;;;;;23.01;60.38;102572.94;5044228;28;45215;-66
2022/07/09 05:17:14;;;;;;;;;9.67;9.67;;;;;23.10;60.09;102574.59;5044895;28;45359;-67
2022/07/09 05:19:39;;;;;;;;;14.25;12.50;;;;;23.07;60.84;102579.66;5043637;28;45259;-67
2022/07/09 05:22:05;;;;;;;;;16.00;12.00;;;;;23.01;61.04;102581.28;5038134;28;47771;-66
2022/07/09 05:24:30;;;;;;;;;10.00;10.00;;;;;23.06;61.25;102584.34;5043303;28;45420;-66
2022/07/09 05:26:56;;;;;;;;;13.67;10.67;;;;;23.12;60.23;102577.19;5052931;28;45382;-66
2022/07/09 05:29:22;;;;;;;;;10.67;10.67;;;;;23.21;59.20;102570.50;5044573;28;45439;-67
2022/07/09 05:31:48;;;;;;;;;8.00;8.00;;;;;23.38;58.94;102576.78;5044995;28;45505;-67
2022/07/09 05:34:14;;;;;;;;;13.00;11.33;;;;;23.63;57.84;102575.50;5028996;28;45351;-66
2022/07/09 05:36:39;;;;;;;;;15.00;10.67;;;;;23.53;58.65;102586.84;5047705;28;45245;-66
2022/07/09 05:39:07;;;;;;;;;9.33;9.33;;;;;23.47;58.81;102575.63;5048909;28;45348;-66
2022/07/09 05:41:33;;;;;;;;;8.67;8.67;;;;;23.39;58.62;102557.16;5031118;28;47214;-66
2022/07/09 05:43:58;;;;;;;;;10.33;10.33;;;;;23.97;57.30;102577.69;5037888;28;45551;-67
2022/07/09 05:46:24;;;;;;;;;9.00;9.00;;;;;24.21;55.68;102584.88;5055526;28;45339;-67
2022/07/09 05:48:49;;;;;;;;;12.00;10.33;;;;;24.18;55.40;102579.69;5055173;28;45459;-66
2022/07/09 05:51:15;;;;;;;;;13.00;10.33;;;;;24.36;55.43;102581.03;5058234;28;45385;-67
2022/07/09 05:53:40;;;;;;;;;12.00;10.00;;;;;24.39;54.84;102583.44;5053860;28;45398;-66
2022/07/09 05:56:07;;;;;;;;;11.00;11.00;;;;;24.42;54.92;102583.00;5042926;28;45325;-66
2022/07/09 05:58:32;;;;;;;;;16.00;11.00;;;;;24.54;54.54;102586.16;5042842;28;45357;-66
2022/07/09 06:00:57;;;;;;;;;13.67;12.33;;;;;24.64;54.38;102586.69;5051779;28;46310;-67
2022/07/09 06:03:23;;;;;;;;;11.00;11.00;;;;;24.64;53.50;102555.25;5055295;28;45271;-67
2022/07/09 06:05:48;;;;;;;;;15.67;14.33;;;;;24.38;54.91;102580.84;5043711;28;45460;-66
2022/07/09 06:08:14;;;;;;;;;12.00;11.00;;;;;25.14;53.11;102570.97;5056728;28;48193;-67
2022/07/09 06:10:39;;;;;;;;;12.33;12.33;;;;;25.93;51.17;102578.03;5053030;28;46463;-67
2022/07/09 06:13:04;;;;;;;;;12.33;9.33;;;;;26.73;48.82;102584.81;5054600;28;45544;-66
2022/07/09 06:15:30;;;;;;;;;9.00;9.00;;;;;26.96;47.46;102579.69;5037322;28;45359;-65
2022/07/09 06:17:55;;;;;;;;;15.67;14.00;;;;;26.70;47.80;102579.63;5048796;28;45528;-65
2022/07/09 06:20:21;;;;;;;;;14.33;14.00;;;;;26.27;48.84;102570.69;5043661;28;46609;-66
2022/07/09 06:22:47;;;;;;;;;12.33;12.33;;;;;25.90;50.00;102574.78;5047664;28;45311;-67
2022/07/09 06:25:12;;;;;;;;;11.00;11.00;;;;;25.74;50.28;102580.66;5048755;28;45283;-66
2022/07/09 06:27:37;;;;;;;;;11.00;9.67;;;;;25.72;50.02;102577.22;5049992;28;45257;-66
2022/07/09 06:30:03;;;;;;;;;14.00;12.33;;;;;25.81;50.70;102579.66;5049785;28;45577;-66
2022/07/09 06:32:29;;;;;;;;;17.33;14.67;;;;;25.71;50.73;102558.81;5046920;28;45498;-66
2022/07/09 06:34:54;;;;;;;;;13.75;13.75;;;;;25.87;50.51;102583.53;5044788;28;45576;-66
2022/07/09 06:37:20;;;;;;;;;12.67;10.33;;;;;25.96;49.70;102576.72;5048725;28;45391;-66
2022/07/09 06:39:45;;;;;;;;;10.00;10.00;;;;;26.08;49.70;102579.81;5045349;28;46539;-66
2022/07/09 06:42:12;;;;;;;;;14.67;12.00;;;;;25.94;49.58;102587.22;5048562;28;45241;-67
2022/07/09 06:44:38;;;;;;;;;10.67;10.00;;;;;25.82;50.18;102584.16;5044968;28;45448;-66
2022/07/09 06:47:04;;;;;;;;;12.00;12.00;;;;;25.83;50.41;102571.94;5036845;28;45442;-66
2022/07/09 06:49:30;;;;;;;;;10.00;9.67;;;;;25.95;49.81;102577.78;5048409;28;46359;-67
2022/07/09 06:51:55;;;;;;;;;8.00;8.00;;;;;25.86;50.63;102576.25;5055326;28;45399;-66
2022/07/09 06:54:21;;;;;;;;;13.75;11.75;;;;;25.93;50.75;102571.59;5038693;28;45527;-66
2022/07/09 06:56:46;;;;;;;;;14.00;13.75;;;;;25.84;50.28;102582.03;5045386;28;45411;-66
2022/07/09 06:59:12;;;;;;;;;14.67;14.67;;;;;25.99;49.64;102576.31;5048054;28;45951;-67
2022/07/09 07:01:38;;;;;;;;;15.50;13.50;;;;;26.12;49.39;102579.19;5029015;28;45307;-67
2022/07/09 07:04:04;;;;;;;;;9.00;9.00;;;;;26.05;49.37;102574.63;5050699;28;45299;-67
2022/07/09 07:06:29;;;;;;;;;12.75;11.75;;;;;26.16;50.17;102577.69;5044330;28;45243;-67
2022/07/09 07:08:54;;;;;;;;;12.33;11.00;;;;;26.26;49.95;102566.19;5056301;28;45462;-68
2022/07/09 07:11:20;;;;;;;;;10.00;9.33;;;;;26.17;48.82;102570.19;5046559;28;45518;-67
2022/07/09 07:13:45;;;;;;;;;11.33;10.33;;;;;26.14;49.86;102565.91;5054121;28;45334;-67
2022/07/09 07:16:10;;;;;;;;;18.75;15.00;;;;;26.19;49.83;102570.84;5043347;28;45417;-67
2022/07/09 07:18:35;;;;;;;;;9.33;8.67;;;;;26.23;48.85;102567.41;5039529;28;46592;-67
2022/07/09 07:21:01;;;;;;;;;11.00;11.00;;;;;26.24;49.45;102569.16;5047872;28;45430;-68
2022/07/09 07:23:26;;;;;;;;;11.00;11.00;;;;;26.38;49.23;102564.50;5051831;28;45517;-68
2022/07/09 07:25:52;;;;;;;;;15.67;13.00;;;;;26.45;48.69;102567.31;5048464;28;45419;-67
2022/07/09 07:28:17;;;;;;;;;13.67;12.00;;;;;26.51;48.58;102566.50;5049239;28;45953;-67
2022/07/09 07:30:42;;;;;;;;;11.00;11.00;;;;;26.72;47.93;102567.22;5042504;28;45438;-67
2022/07/09 07:33:07;;;;;;;;;14.00;12.00;;;;;26.75;47.81;102566.75;5046914;28;45430;-68
2022/07/09 07:35:33;;;;;;;;;11.33;9.67;;;;;26.42;48.99;102565.84;5028394;28;45596;-67
2022/07/09 07:38:01;;;;;;;;;10.00;10.00;;;;;26.66;48.27;102568.06;5043702;28;45574;-67
2022/07/09 07:40:26;;;;;;;;;10.67;10.67;;;;;26.68;47.73;102565.88;5042402;28;45443;-67
2022/07/09 07:42:52;;;;;;;;;14.33;13.00;;;;;26.64;47.99;102575.75;5044538;28;45399;-67
2022/07/09 07:45:17;;;;;;;;;12.67;12.67;;;;;26.70;48.01;102577.69;5042531;28;45449;-67
2022/07/09 07:47:42;;;;;;;;;11.67;10.67;;;;;26.78;47.68;102567.41;5048931;28;45518;-67
2022/07/09 07:50:08;;;;;;;;;11.33;10.00;;;;;26.94;47.40;102578.22;5057721;28;45401;-67
2022/07/09 07:52:34;;;;;;;;;8.00;8.00;;;;;27.13;47.46;102569.00;5053092;28;46693;-67
2022/07/09 07:54:59;;;;;;;;;10.00;10.00;;;;;27.21;47.03;102573.50;5042471;28;45381;-67
2022/07/09 07:57:24;;;;;;;;;16.50;15.75;;;;;27.15;47.39;102561.28;5047916;28;45260;-67
2022/07/09 07:59:50;;;;;;;;;11.00;8.00;;;;;27.29;46.39;102568.56;5043083;28;45442;-67
2022/07/09 08:02:15;;;;;;;;;10.33;10.33;;;;;27.54;45.38;102568.81;5031811;28;45361;-68
2022/07/09 08:04:41;;;;;;;;;9.00;9.00;;;;;27.64;45.48;102572.00;5044796;28;45428;-68
2022/07/09 08:07:06;;;;;;;;;8.33;7.00;;;;;27.49;45.10;102568.53;5048022;28;45316;-67
2022/07/09 08:09:32;;;;;;;;;11.33;9.33;;;;;27.28;45.26;102561.25;5053531;28;45331;-67
2022/07/09 08:11:59;;;;;;;;;10.00;10.00;;;;;27.66;45.37;102564.25;5046782;28;45272;-67
2022/07/09 08:14:24;;;;;;;;;10.25;10.25;;;;;27.76;44.65;102564.66;5037819;28;45552;-67
2022/07/09 08:16:50;;;;;;;;;10.67;9.33;;;;;28.11;44.11;102555.97;5042799;28;46453;-67
2022/07/09 08:19:15;;;;;;;;;11.33;10.00;;;;;28.00;44.40;102557.50;5047418;28;45259;-68
2022/07/09 08:21:41;;;;;;;;;7.00;7.00;;;;;28.09;43.08;102558.97;5044631;28;45234;-67
2022/07/09 08:24:06;;;;;;;;;8.33;7.67;;;;;28.12;43.16;102552.09;5047711;28;45449;-67
2022/07/09 08:26:32;;;;;;;;;7.33;6.33;;;;;28.08;42.19;102545.22;5042940;28;45388;-66
2022/07/09 08:28:57;;;;;;;;;8.50;7.50;;;;;28.01;42.46;102550.84;5044870;28;45322;-67
2022/07/09 08:31:23;;;;;;;;;7.33;7.00;;;;;28.45;42.17;102552.81;5041902;28;45246;-66
2022/07/09 08:33:49;;;;;;;;;8.00;6.00;;;;;28.32;41.18;102552.91;5041577;28;45741;-66
2022/07/09 08:36:15;;;;;;;;;11.00;8.33;;;;;28.70;41.66;102546.44;5042976;28;46047;-66
2022/07/09 08:38:40;;;;;;;;;7.00;7.00;;;;;29.04;40.92;102543.19;5039860;28;45880;-67
2022/07/09 08:41:06;;;;;;;;;5.33;5.33;;;;;28.81;40.76;102531.75;5038375;28;45269;-67
2022/07/09 08:43:36;;;;;;;;;8.33;7.00;;;;;29.03;40.03;102544.28;5047532;28;45411;-67
2022/07/09 08:46:02;;;;;;;;;5.67;5.67;;;;;28.96;40.99;102543.47;5036713;28;45782;-67
2022/07/09 08:48:28;;;;;;;;;7.00;6.00;;;;;29.28;39.73;102547.09;5052669;28;45334;-67
2022/07/09 08:50:53;;;;;;;;;6.00;6.00;;;;;29.10;38.68;102539.47;5041679;28;45399;-67
2022/07/09 08:53:19;;;;;;;;;4.00;4.00;;;;;29.12;38.92;102534.53;5055792;28;45224;-67
2022/07/09 08:55:45;;;;;;;;;8.33;7.00;;;;;29.11;39.57;102534.75;5042419;28;45285;-67
2022/07/09 08:58:13;;;;;;;;;8.00;7.00;;;;;28.80;40.22;102539.28;5051509;28;45545;-67
2022/07/09 09:00:38;;;;;;;;;7.33;7.33;;;;;29.02;40.83;102525.78;5041496;28;45355;-67
2022/07/09 09:03:05;;;;;;;;;7.00;6.00;;;;;29.55;39.64;102523.38;5051382;28;45669;-67
2022/07/09 09:05:30;;;;;;;;;5.00;5.00;;;;;29.85;38.39;102517.00;5041438;28;45599;-67
2022/07/09 09:07:55;;;;;;;;;7.67;5.00;;;;;29.88;37.92;102514.56;5046751;28;45469;-67
2022/07/09 09:10:23;;;;;;;;;6.67;6.67;;;;;30.11;37.65;102514.75;5055660;28;45444;-67
2022/07/09 09:12:48;;;;;;;;;5.67;5.67;;;;;30.27;36.98;102518.84;5058670;28;45457;-67
2022/07/09 09:15:18;;;;;;;;;6.00;6.00;;;;;30.45;37.00;102518.81;5044995;28;46003;-67
2022/07/09 09:17:44;;;;;;;;;6.00;6.00;;;;;30.36;36.65;102516.56;5048692;28;45454;-67
2022/07/09 09:20:17;;;;;;;;;5.67;4.00;;;;;30.13;37.40;102509.75;5045170;28;45391;-67
2022/07/09 09:22:52;;;;;;;;;4.33;4.33;;;;;30.51;36.05;102520.69;5053827;28;45545;-67
2022/07/09 09:25:21;;;;;;;;;4.00;4.00;;;;;30.38;35.40;102511.59;5052012;28;46364;-67
2022/07/09 09:27:58;;;;;;;;;5.33;4.00;;;;;30.72;34.80;102516.50;5052193;28;45377;-68
2022/07/09 09:30:25;;;;;;;;;4.00;4.00;;;;;31.04;36.10;102507.78;5051913;28;45354;-67
2022/07/09 09:33:01;;;;;;;;;4.67;4.00;;;;;31.39;34.75;102500.25;5055669;28;45404;-69
2022/07/09 09:35:28;;;;;;;;;3.00;3.00;;;;;31.42;35.24;102510.97;5057524;28;46274;-67
2022/07/09 09:37:55;;;;;;;;;10.33;10.33;;;;;31.28;34.46;102515.13;5049626;28;45405;-67
2022/07/09 09:40:20;;;;;;;;;5.00;5.00;;;;;31.31;35.60;102520.28;5047127;28;45267;-67
2022/07/09 09:42:46;;;;;;;;;6.33;6.33;;;;;31.61;34.42;102508.94;5046412;28;45525;-67
2022/07/09 09:45:14;;;;;;;;;4.33;4.33;;;;;31.57;35.07;102511.34;5044538;28;45552;-67
2022/07/09 09:47:50;;;;;;;;;4.67;4.00;;;;;31.47;34.97;102513.94;5050486;28;45405;-67
2022/07/09 09:50:18;;;;;;;;;3.33;3.33;;;;;31.85;35.50;102510.63;5048404;28;45537;-67
2022/07/09 09:52:46;;;;;;;;;4.33;4.33;;;;;32.13;33.20;102508.94;5048722;28;45370;-66
2022/07/09 09:55:13;;;;;;;;;6.00;6.00;;;;;31.79;33.93;102507.91;5029034;28;47300;-66
2022/07/09 09:57:39;;;;;;;;;5.67;5.67;;;;;31.52;35.45;102504.75;5050044;28;45396;-68
2022/07/09 10:00:06;;;;;;;;;7.33;5.67;;;;;31.75;34.32;102506.72;5047362;28;45298;-66
2022/07/09 10:02:33;;;;;;;;;6.00;5.00;;;;;31.47;34.71;102502.69;5050237;28;45320;-66
2022/07/09 10:04:59;;;;;;;;;4.00;4.00;;;;;31.33;34.92;102502.09;5056938;28;45541;-66
2022/07/09 10:07:25;;;;;;;;;6.67;4.67;;;;;31.67;34.73;102519.19;5041373;28;45371;-67
2022/07/09 10:09:58;;;;;;;;;4.00;4.00;;;;;32.18;34.51;102515.56;5056417;28;45462;-67
2022/07/09 10:12:32;;;;;;;;;5.00;5.00;;;;;32.18;33.39;102509.94;5057665;28;45594;-70
2022/07/09 10:14:58;;;;;;;;;5.00;5.00;;;;;32.51;32.65;102511.16;5045479;28;46556;-68
2022/07/09 10:17:25;;;;;;;;;6.00;6.00;;;;;32.73;32.10;102507.34;5051818;28;45394;-65
2022/07/09 10:19:58;;;;;;;;;8.67;8.67;;;;;32.07;33.32;102513.63;5048972;28;45324;-67
2022/07/09 10:22:42;;;;;;;;;12.33;11.33;;;;;32.74;32.80;102495.00;5059655;28;45504;-68
2022/07/09 10:25:09;;;;;;;;;5.00;5.00;;;;;33.30;30.86;102490.34;5047993;28;46796;-68
2022/07/09 10:27:45;;;;;;;;;6.33;6.33;;;;;33.93;30.19;102498.31;5031067;28;45766;-67
2022/07/09 10:30:28;;;;;;;;;6.33;6.33;;;;;34.10;29.64;102503.03;5049614;28;45408;-66
2022/07/09 10:33:07;;;;;;;;;5.33;4.67;;;;;34.15;29.37;102500.25;5050056;28;45569;-65
2022/07/09 10:35:43;;;;;;;;;6.67;6.67;;;;;34.03;30.59;102494.75;5046254;28;46160;-66
2022/07/09 10:38:09;;;;;;;;;7.00;7.00;;;;;34.22;30.19;102496.16;5048868;28;45301;-66
2022/07/09 10:40:44;;;;;;;;;7.00;7.00;;;;;33.64;31.13;102485.47;5045307;28;45158;-65
2022/07/09 10:43:10;;;;;;;;;6.33;6.33;;;;;33.30;30.58;102489.47;5047479;28;45620;-65
2022/07/09 10:45:39;;;;;;;;;6.67;6.00;;;;;33.16;31.53;102489.81;5043517;28;45296;-66
2022/07/09 10:48:06;;;;;;;;;6.00;6.00;;;;;32.81;31.36;102477.94;5047082;28;45422;-66
2022/07/09 10:50:35;;;;;;;;;6.00;6.00;;;;;32.85;30.78;102485.63;5045994;28;45441;-65
2022/07/09 10:53:01;;;;;;;;;6.67;5.33;;;;;33.85;30.48;102467.72;5058373;28;45414;-66
2022/07/09 10:55:27;;;;;;;;;4.67;4.67;;;;;34.24;29.17;102465.69;5032962;28;48416;-66
2022/07/09 10:57:53;;;;;;;;;4.00;4.00;;;;;33.37;29.43;102468.47;5061668;28;45778;-67
2022/07/09 11:00:24;;;;;;;;;5.00;5.00;;;;;33.35;29.91;102470.69;5044558;28;45596;-66
2022/07/09 11:03:13;;;;;;;;;5.67;5.67;;;;;33.93;28.99;102467.28;5054173;28;45269;-67
2022/07/09 11:05:46;;;;;;;;;8.00;7.00;;;;;35.03;28.33;102454.59;5036017;28;48681;-66
2022/07/09 11:08:12;;;;;;;;;6.67;4.67;;;;;35.63;27.40;102455.28;5033823;28;46073;-66
2022/07/09 11:10:39;;;;;;;;;8.67;8.67;;;;;35.46;27.14;102461.13;5044065;28;45383;-66
2022/07/09 11:13:06;;;;;;;;;7.00;7.00;;;;;35.53;27.62;102462.56;5054389;28;45318;-66
2022/07/09 11:15:33;;;;;;;;;6.25;6.25;;;;;35.25;27.92;102460.16;5043255;28;46055;-66